Time;durP1;ratioP1;P1;durP2;ratioP2;P2;SDS_P1;SDS_P2;PMS_P1;PMS_P2;Temp;Humidity;BMP_temperature;BMP_pressure;BME280_temperature;BME280_humidity;BME280_pressure;Samples;Min_cycle;Max_cycle;Signal;HPM_P1;HPM_P2
2023/12/02 00:03:11;;;;;;;23.75;14.00;;;-0.40;99.90;;;;;;7352562;32;20593;-55
2023/12/02 00:07:13;;;;;;;17.35;11.63;;;-0.50;99.90;;;;;;7350095;32;20130;-56
2023/12/02 00:11:15;;;;;;;22.55;12.63;;;-0.60;99.90;;;;;;7349760;32;20171;-56
2023/12/02 00:15:17;;;;;;;24.98;14.25;;;-0.60;99.90;;;;;;7345925;32;20096;-56
2023/12/02 00:19:18;;;;;;;26.05;15.70;;;-0.50;99.90;;;;;;7351722;32;20133;-57
2023/12/02 00:23:20;;;;;;;30.77;17.83;;;-0.40;99.90;;;;;;7351383;32;20134;-55
2023/12/02 00:27:22;;;;;;;20.95;13.25;;;-0.40;99.90;;;;;;7350516;32;20269;-56
2023/12/02 00:31:23;;;;;;;20.67;13.65;;;-0.40;99.90;;;;;;7346379;32;20194;-56
2023/12/02 00:35:25;;;;;;;26.40;15.60;;;-0.40;99.90;;;;;;7352647;32;20146;-56
2023/12/02 00:39:27;;;;;;;23.20;13.55;;;-0.30;99.90;;;;;;7343081;32;20127;-56
2023/12/02 00:43:29;;;;;;;29.20;16.50;;;-0.40;99.90;;;;;;7350412;32;20115;-57
2023/12/02 00:47:31;;;;;;;19.35;11.70;;;-0.60;99.90;;;;;;7348868;32;20135;-55
2023/12/02 00:51:34;;;;;;;26.25;14.40;;;-0.90;99.90;;;;;;7347491;32;20130;-55
2023/12/02 00:55:36;;;;;;;26.95;15.68;;;-0.80;99.90;;;;;;7350633;32;20111;-55
2023/12/02 00:59:37;;;;;;;135.57;67.57;;;-0.80;99.90;;;;;;7347415;32;20573;-57
2023/12/02 01:03:39;;;;;;;52.13;24.83;;;-0.70;99.90;;;;;;7345487;32;20271;-56
2023/12/02 01:07:41;;;;;;;22.15;12.98;;;-0.80;99.90;;;;;;7345151;32;20160;-55
2023/12/02 01:11:42;;;;;;;15.85;8.07;;;-0.70;99.90;;;;;;7344893;32;20114;-55
2023/12/02 01:15:44;;;;;;;15.75;8.75;;;-1.00;99.90;;;;;;7346236;32;20178;-55
2023/12/02 01:19:46;;;;;;;17.37;10.55;;;-1.00;99.90;;;;;;7343055;32;20246;-56
2023/12/02 01:23:48;;;;;;;15.55;9.70;;;-0.90;99.90;;;;;;7348767;32;20839;-57
2023/12/02 01:27:50;;;;;;;15.13;9.57;;;-1.00;99.90;;;;;;7351481;32;20548;-56
2023/12/02 01:31:51;;;;;;;16.02;10.70;;;-0.80;99.90;;;;;;7338562;32;20198;-55
2023/12/02 01:35:53;;;;;;;19.87;11.50;;;-0.80;99.90;;;;;;7348739;32;20274;-56
2023/12/02 01:39:55;;;;;;;20.17;11.60;;;-0.70;99.90;;;;;;7345270;32;20337;-56
2023/12/02 01:43:57;;;;;;;17.40;11.00;;;-0.70;99.90;;;;;;7351202;32;20352;-57
2023/12/02 01:48:00;;;;;;;15.85;10.27;;;-0.70;99.90;;;;;;7347777;32;20265;-54
2023/12/02 01:52:02;;;;;;;16.60;11.15;;;-0.70;99.90;;;;;;7347424;32;20243;-55
2023/12/02 01:56:04;;;;;;;18.37;10.80;;;-0.70;99.90;;;;;;7348196;32;20132;-57
2023/12/02 02:00:09;;;;;;;19.62;11.68;;;-0.80;99.90;;;;;;7342430;32;20134;-56
2023/12/02 02:04:11;;;;;;;16.00;11.15;;;-0.80;99.90;;;;;;7346280;32;20691;-57
2023/12/02 02:08:13;;;;;;;16.58;10.93;;;-0.70;99.90;;;;;;7348413;32;20127;-56
2023/12/02 02:12:15;;;;;;;18.30;11.20;;;-0.70;99.90;;;;;;7345745;32;20131;-56
2023/12/02 02:16:17;;;;;;;18.42;10.93;;;-0.70;99.90;;;;;;7346967;32;20103;-56
2023/12/02 02:20:19;;;;;;;17.52;10.32;;;-0.70;99.90;;;;;;7345024;32;20508;-56
2023/12/02 02:24:21;;;;;;;18.75;10.90;;;-0.70;99.90;;;;;;7343582;32;20203;-56
2023/12/02 02:28:24;;;;;;;15.63;9.45;;;-0.80;99.90;;;;;;7349300;32;20254;-58
2023/12/02 02:32:26;;;;;;;17.33;10.27;;;-0.80;99.90;;;;;;7342396;32;20189;-56
2023/12/02 02:36:28;;;;;;;16.60;9.27;;;-0.70;99.90;;;;;;7343439;32;20238;-57
2023/12/02 02:40:30;;;;;;;16.55;10.55;;;-0.90;99.90;;;;;;7346182;32;20533;-56
2023/12/02 02:44:38;;;;;;;15.75;9.40;;;-0.80;99.90;;;;;;7351597;32;20270;-56
2023/12/02 02:48:39;;;;;;;15.25;9.52;;;-0.90;99.90;;;;;;7343530;32;20474;-57
2023/12/02 02:52:42;;;;;;;17.92;10.65;;;-0.90;99.90;;;;;;7342116;32;20198;-56
2023/12/02 02:56:44;;;;;;;13.73;9.02;;;-0.90;99.90;;;;;;7348890;32;20596;-56
2023/12/02 03:00:46;;;;;;;14.48;9.38;;;-0.90;99.90;;;;;;7352254;32;20119;-56
2023/12/02 03:04:48;;;;;;;14.98;9.02;;;-0.80;99.90;;;;;;7344137;32;20139;-56
2023/12/02 03:08:49;;;;;;;14.87;9.15;;;-0.70;99.90;;;;;;7348444;32;20229;-56
2023/12/02 03:12:51;;;;;;;19.55;9.90;;;-0.60;99.90;;;;;;7339628;32;20220;-57
2023/12/02 03:16:53;;;;;;;16.73;10.38;;;-0.60;99.90;;;;;;7343159;32;20867;-56
2023/12/02 03:20:55;;;;;;;19.40;11.52;;;-0.60;99.90;;;;;;7346697;32;20115;-56
2023/12/02 03:24:56;;;;;;;17.05;10.77;;;-0.80;99.90;;;;;;7342789;32;20159;-56
2023/12/02 03:28:58;;;;;;;18.05;10.85;;;-0.80;99.90;;;;;;7338629;32;20130;-55
2023/12/02 03:33:00;;;;;;;15.85;9.98;;;-0.80;99.90;;;;;;7349307;32;20339;-56
2023/12/02 03:37:02;;;;;;;19.23;11.02;;;-0.80;99.90;;;;;;7342273;32;20252;-56
2023/12/02 03:41:04;;;;;;;16.35;9.25;;;-0.60;99.90;;;;;;7346302;32;20118;-55
2023/12/02 03:45:06;;;;;;;15.95;9.65;;;-0.50;99.90;;;;;;7345684;32;20115;-54
2023/12/02 03:49:08;;;;;;;20.05;10.77;;;-0.50;99.90;;;;;;7352805;32;20534;-55
2023/12/02 03:53:10;;;;;;;16.52;9.98;;;-0.70;99.90;;;;;;7350011;32;20139;-56
2023/12/02 03:57:12;;;;;;;18.42;10.77;;;-0.80;99.90;;;;;;7346078;32;20111;-57
2023/12/02 04:01:15;;;;;;;17.52;10.55;;;-0.80;99.90;;;;;;7349580;32;20481;-56
2023/12/02 04:05:18;;;;;;;17.52;10.43;;;-0.80;99.90;;;;;;7350738;32;20512;-55
2023/12/02 04:09:19;;;;;;;17.77;10.30;;;-0.70;99.90;;;;;;7355793;32;20144;-56
2023/12/02 04:13:21;;;;;;;17.98;10.73;;;-0.80;99.90;;;;;;7356213;32;20119;-56
2023/12/02 04:17:23;;;;;;;17.67;9.85;;;-0.80;99.90;;;;;;7356895;32;20182;-55
2023/12/02 04:21:26;;;;;;;15.10;9.35;;;-0.80;99.90;;;;;;7352278;32;20695;-56
2023/12/02 04:25:28;;;;;;;14.27;9.00;;;-0.70;99.90;;;;;;7355371;32;20139;-56
2023/12/02 04:29:30;;;;;;;15.35;9.07;;;-0.60;99.90;;;;;;7351123;32;20536;-56
2023/12/02 04:33:32;;;;;;;14.98;8.50;;;-0.70;99.90;;;;;;7353720;32;20134;-56
2023/12/02 04:37:34;;;;;;;14.63;8.18;;;-0.60;99.90;;;;;;7353508;32;20187;-56
2023/12/02 04:41:36;;;;;;;13.00;8.00;;;-0.70;99.90;;;;;;7357563;32;20266;-56
2023/12/02 04:45:37;;;;;;;12.65;7.80;;;-0.80;99.90;;;;;;7355357;32;20119;-56
2023/12/02 04:49:40;;;;;;;15.48;9.10;;;-0.80;99.90;;;;;;7350901;32;20116;-57
2023/12/02 04:53:42;;;;;;;14.63;8.32;;;-1.00;99.90;;;;;;7355349;32;20179;-56
2023/12/02 04:57:45;;;;;;;16.87;8.65;;;-1.10;99.90;;;;;;7353475;32;20150;-56
2023/12/02 05:01:47;;;;;;;15.48;8.25;;;-1.00;99.90;;;;;;7344469;32;20127;-55
2023/12/02 05:05:49;;;;;;;13.48;8.18;;;-1.00;99.90;;;;;;7352503;32;20125;-55
2023/12/02 05:09:51;;;;;;;15.23;8.82;;;-0.90;99.90;;;;;;7347358;32;20123;-57
2023/12/02 05:13:53;;;;;;;14.77;8.02;;;-0.70;99.90;;;;;;7345689;32;20111;-55
2023/12/02 05:17:54;;;;;;;12.75;7.43;;;-0.70;99.90;;;;;;7351707;32;20500;-56
2023/12/02 05:21:56;;;;;;;12.05;7.70;;;-0.60;99.90;;;;;;7349858;32;20177;-55
2023/12/02 05:25:58;;;;;;;12.02;7.32;;;-0.60;99.90;;;;;;7342491;32;20111;-55
2023/12/02 05:30:00;;;;;;;15.77;8.70;;;-0.70;99.90;;;;;;7344326;32;20159;-55
2023/12/02 05:34:02;;;;;;;16.67;9.05;;;-0.80;99.90;;;;;;7353308;32;20429;-56
2023/12/02 05:38:04;;;;;;;18.05;9.00;;;-0.90;99.90;;;;;;7351881;32;20135;-55
2023/12/02 05:42:06;;;;;;;16.52;9.23;;;-1.00;99.90;;;;;;7350436;32;20115;-56
2023/12/02 05:46:15;;;;;;;17.80;9.23;;;-1.00;99.90;;;;;;7351101;32;20122;-56
2023/12/02 05:50:17;;;;;;;15.30;9.02;;;-1.00;99.90;;;;;;7354704;32;20728;-57
2023/12/02 05:54:19;;;;;;;17.87;9.73;;;-1.00;99.90;;;;;;7355856;32;20142;-57
2023/12/02 05:58:21;;;;;;;14.40;8.13;;;-0.80;99.90;;;;;;7353129;32;20607;-56
2023/12/02 06:02:22;;;;;;;16.50;8.85;;;-0.80;99.90;;;;;;7347745;32;20111;-56
2023/12/02 06:06:24;;;;;;;14.48;8.73;;;-0.90;99.90;;;;;;7344194;32;20271;-56
2023/12/02 06:10:26;;;;;;;13.68;7.78;;;-0.90;99.90;;;;;;7354686;32;20527;-55
2023/12/02 06:14:27;;;;;;;15.15;7.87;;;-0.90;99.90;;;;;;7347847;32;20548;-55
2023/12/02 06:18:32;;;;;;;14.52;8.02;;;-0.90;99.90;;;;;;7347998;32;20191;-55
2023/12/02 06:22:35;;;;;;;16.65;9.13;;;-1.00;99.90;;;;;;7347261;32;20258;-54
2023/12/02 06:26:36;;;;;;;13.02;7.72;;;-1.00;99.90;;;;;;7349248;32;20131;-55
2023/12/02 06:30:38;;;;;;;13.00;7.87;;;-0.90;99.90;;;;;;7347184;32;20137;-56
2023/12/02 06:34:40;;;;;;;13.07;7.43;;;-1.00;99.90;;;;;;7350632;32;20441;-55
2023/12/02 06:38:42;;;;;;;12.63;7.53;;;-1.00;99.90;;;;;;7344360;32;20130;-55
2023/12/02 06:42:44;;;;;;;11.90;7.32;;;-0.90;99.90;;;;;;7337754;32;20212;-55
2023/12/02 06:46:46;;;;;;;13.25;7.50;;;-0.80;99.90;;;;;;7347011;32;20568;-56
2023/12/02 06:50:47;;;;;;;12.70;7.10;;;-0.90;99.90;;;;;;7351104;32;20532;-56
2023/12/02 06:54:49;;;;;;;12.88;7.60;;;-0.90;99.90;;;;;;7353742;32;20129;-55
2023/12/02 06:58:54;;;;;;;14.73;7.82;;;-0.90;99.90;;;;;;7347052;32;20195;-55
2023/12/02 07:02:55;;;;;;;12.63;7.57;;;-0.70;99.90;;;;;;7347557;32;20453;-55
2023/12/02 07:06:57;;;;;;;16.25;8.43;;;-0.80;99.90;;;;;;7352629;32;20164;-55
2023/12/02 07:10:59;;;;;;;12.13;7.97;;;-0.80;99.90;;;;;;7346651;32;20115;-55
2023/12/02 07:15:00;;;;;;;12.90;7.70;;;-1.00;99.90;;;;;;7344122;32;20179;-55
2023/12/02 07:19:03;;;;;;;13.77;7.72;;;-0.90;99.90;;;;;;7345456;32;20125;-55
2023/12/02 07:23:05;;;;;;;14.87;8.65;;;-0.90;99.90;;;;;;7353877;32;20115;-56
2023/12/02 07:27:07;;;;;;;14.32;8.00;;;-0.90;99.90;;;;;;7353201;32;20115;-56
2023/12/02 07:31:13;;;;;;;14.68;8.07;;;-0.80;99.90;;;;;;7346730;32;20435;-57
2023/12/02 07:35:15;;;;;;;15.70;8.77;;;-0.70;99.90;;;;;;7349171;32;20202;-57
2023/12/02 07:39:16;;;;;;;13.27;7.85;;;-0.70;99.90;;;;;;7349735;32;20104;-58
2023/12/02 07:43:18;;;;;;;13.77;7.85;;;-0.60;99.90;;;;;;7356353;32;20131;-56
2023/12/02 07:47:20;;;;;;;14.73;7.82;;;-0.60;99.90;;;;;;7346526;32;20133;-56
2023/12/02 07:51:22;;;;;;;14.40;7.95;;;-0.60;99.90;;;;;;7343479;32;20525;-56
2023/12/02 07:55:24;;;;;;;13.62;8.23;;;-0.60;99.90;;;;;;7349049;32;20249;-57
2023/12/02 07:59:25;;;;;;;13.15;7.80;;;-0.60;99.90;;;;;;7345205;32;20229;-57
2023/12/02 08:03:28;;;;;;;15.35;7.95;;;-0.50;99.90;;;;;;7351337;32;20100;-57
2023/12/02 08:07:30;;;;;;;14.00;8.45;;;-0.50;99.90;;;;;;7342613;32;20115;-56
2023/12/02 08:11:31;;;;;;;13.55;7.72;;;-0.60;99.90;;;;;;7346150;32;20122;-55
2023/12/02 08:15:33;;;;;;;10.27;6.93;;;-0.70;99.90;;;;;;7332099;32;20419;-55
2023/12/02 08:19:35;;;;;;;13.60;7.80;;;-0.70;99.90;;;;;;7343250;32;20325;-56
2023/12/02 08:23:37;;;;;;;15.15;7.97;;;-0.60;99.90;;;;;;7339354;32;20111;-55
2023/12/02 08:27:39;;;;;;;12.93;7.22;;;-0.50;99.90;;;;;;7338981;32;20167;-56
2023/12/02 08:31:41;;;;;;;12.45;7.20;;;-0.50;99.90;;;;;;7333637;32;20765;-56
2023/12/02 08:35:43;;;;;;;11.77;6.53;;;-0.30;99.90;;;;;;7334538;32;20224;-56
2023/12/02 08:39:45;;;;;;;12.18;6.72;;;-0.40;99.90;;;;;;7343354;32;20461;-56
2023/12/02 08:43:46;;;;;;;11.65;7.35;;;-0.50;99.90;;;;;;7344713;32;20171;-56
2023/12/02 08:47:48;;;;;;;12.37;7.25;;;-0.50;99.90;;;;;;7342553;32;20273;-57
2023/12/02 08:51:50;;;;;;;12.13;6.85;;;-0.40;99.90;;;;;;7348065;32;20719;-56
2023/12/02 08:55:52;;;;;;;10.98;6.60;;;-0.30;99.90;;;;;;7344232;32;20111;-56
2023/12/02 08:59:54;;;;;;;14.05;7.65;;;-0.20;99.90;;;;;;7345778;32;20209;-57
2023/12/02 09:03:55;;;;;;;12.85;7.35;;;-0.20;99.90;;;;;;7345821;32;20315;-58
2023/12/02 09:08:00;;;;;;;13.23;7.45;;;-0.20;99.90;;;;;;7344786;32;20155;-57
2023/12/02 09:12:02;;;;;;;12.82;7.00;;;-0.20;99.90;;;;;;7344180;32;20194;-55
2023/12/02 09:16:04;;;;;;;12.57;6.78;;;-0.10;99.90;;;;;;7345333;32;21372;-57
2023/12/02 09:20:24;;;;;;;14.02;8.32;;;-0.20;99.90;;;;;;7341312;32;20672;-57
2023/12/02 09:24:34;;;;;;;13.68;7.85;;;-0.30;99.90;;;;;;7341485;32;20232;-59
2023/12/02 09:28:37;;;;;;;14.30;7.45;;;-0.20;99.90;;;;;;7340205;32;20265;-57
2023/12/02 09:32:45;;;;;;;13.98;7.43;;;-0.20;99.90;;;;;;7339897;32;20131;-58
2023/12/02 09:36:47;;;;;;;13.32;7.35;;;-0.20;99.90;;;;;;7345069;32;20139;-58
2023/12/02 09:40:55;;;;;;;13.18;7.65;;;0.00;99.90;;;;;;7343172;32;20190;-58
2023/12/02 09:45:03;;;;;;;11.88;7.10;;;0.00;99.90;;;;;;7340394;32;20580;-57
2023/12/02 09:49:16;;;;;;;14.73;7.57;;;0.20;99.90;;;;;;7343804;32;20552;-58
2023/12/02 09:53:33;;;;;;;13.62;7.25;;;0.00;99.90;;;;;;7339943;32;20122;-57
2023/12/02 09:58:01;;;;;;;14.45;7.90;;;0.10;99.90;;;;;;7342437;32;20233;-58
2023/12/02 10:02:28;;;;;;;12.07;7.12;;;0.10;99.90;;;;;;7340694;32;20245;-57
2023/12/02 10:06:38;;;;;;;;;;;0.10;99.90;;;;;;7342532;32;20107;-57
2023/12/02 10:11:07;;;;;;;13.20;8.05;;;0.20;99.90;;;;;;7340142;32;20132;-55
2023/12/02 10:15:12;;;;;;;13.30;7.68;;;0.30;99.90;;;;;;7340454;32;20104;-56
2023/12/02 10:19:36;;;;;;;15.18;7.82;;;0.40;99.90;;;;;;7340829;32;20302;-57
2023/12/02 10:23:51;;;;;;;14.75;8.23;;;0.30;99.90;;;;;;7337720;32;20218;-57
2023/12/02 10:27:58;;;;;;;15.70;8.43;;;0.40;99.90;;;;;;7341005;32;20606;-58
2023/12/02 10:32:19;;;;;;;;;;;0.40;99.90;;;;;;7343815;32;20170;-56
2023/12/02 10:36:21;;;;;;;15.65;7.50;;;0.40;99.90;;;;;;7344555;32;20364;-57
2023/12/02 10:40:26;;;;;;;12.02;7.40;;;0.10;99.90;;;;;;7346818;32;20687;-58
2023/12/02 10:44:33;;;;;;;13.52;7.03;;;0.00;99.90;;;;;;7348289;32;20130;-57
2023/12/02 10:48:39;;;;;;;13.88;8.27;;;0.00;99.90;;;;;;7342951;32;20153;-56
2023/12/02 10:52:46;;;;;;;;;;;0.20;99.90;;;;;;7346833;32;20205;-57
2023/12/02 10:56:49;;;;;;;15.45;8.45;;;0.40;99.90;;;;;;7347202;32;20172;-58
2023/12/02 11:00:58;;;;;;;12.88;8.20;;;0.40;99.90;;;;;;7353795;32;20178;-55
2023/12/02 11:05:11;;;;;;;12.30;7.90;;;0.40;99.90;;;;;;7345391;32;20573;-57
2023/12/02 11:09:20;;;;;;;15.57;8.20;;;0.30;99.90;;;;;;7351988;32;20901;-56
2023/12/02 11:13:23;;;;;;;18.87;11.07;;;0.30;99.90;;;;;;7350304;32;20155;-58
2023/12/02 11:17:48;;;;;;;21.00;11.98;;;0.20;99.90;;;;;;7347140;32;20324;-58
2023/12/02 11:22:28;;;;;;;22.85;12.95;;;0.20;99.90;;;;;;7343260;32;20647;-56
2023/12/02 11:26:57;;;;;;;22.27;12.50;;;0.20;99.90;;;;;;7341345;32;20172;-57
2023/12/02 11:31:24;;;;;;;21.87;11.98;;;0.20;99.90;;;;;;7341261;32;20179;-57
2023/12/02 11:35:35;;;;;;;25.92;13.18;;;0.20;99.90;;;;;;7338296;32;20179;-55
2023/12/02 11:39:52;;;;;;;28.40;14.80;;;0.40;99.90;;;;;;7345267;32;20819;-55
2023/12/02 11:44:38;;;;;;;24.87;14.52;;;0.60;99.90;;;;;;7342157;32;20120;-55
2023/12/02 11:49:14;;;;;;;31.20;16.08;;;0.80;99.90;;;;;;7341969;32;20194;-57
2023/12/02 11:53:25;;;;;;;29.65;16.33;;;0.80;99.90;;;;;;7344416;32;20313;-57
2023/12/02 11:57:32;;;;;;;28.17;15.95;;;0.60;99.90;;;;;;7342947;32;21549;-57
2023/12/02 12:01:43;;;;;;;28.73;16.33;;;0.60;99.90;;;;;;7345090;32;20139;-55
2023/12/02 12:06:17;;;;;;;32.45;18.27;;;0.60;99.90;;;;;;7350849;32;20111;-58
2023/12/02 12:10:33;;;;;;;36.60;17.80;;;0.50;99.90;;;;;;7341876;32;20273;-56
2023/12/02 12:14:37;;;;;;;30.52;16.73;;;0.70;99.90;;;;;;7353268;32;20234;-56
2023/12/02 12:18:38;;;;;;;28.95;15.30;;;0.70;99.90;;;;;;7353426;32;20294;-55
2023/12/02 12:22:40;;;;;;;27.75;15.68;;;0.70;99.90;;;;;;7354622;32;20178;-55
2023/12/02 12:26:44;;;;;;;26.30;15.52;;;0.70;99.90;;;;;;7353810;32;20527;-54
2023/12/02 12:30:48;;;;;;;28.38;15.27;;;0.60;99.90;;;;;;7354873;32;20871;-56
2023/12/02 12:34:53;;;;;;;27.98;14.98;;;0.40;99.90;;;;;;7350908;32;20122;-55
2023/12/02 12:38:56;;;;;;;27.60;14.18;;;0.50;99.90;;;;;;7354157;32;20194;-56
2023/12/02 12:43:00;;;;;;;22.15;12.70;;;0.40;99.90;;;;;;7352849;32;20828;-55
2023/12/02 12:47:03;;;;;;;29.02;14.73;;;0.40;99.90;;;;;;7353527;32;20195;-55
2023/12/02 12:51:06;;;;;;;22.42;12.52;;;0.40;99.90;;;;;;7353793;32;20127;-55
2023/12/02 12:55:09;;;;;;;21.85;11.68;;;0.50;99.90;;;;;;7351343;32;20119;-56
2023/12/02 12:59:21;;;;;;;23.35;13.30;;;0.50;99.90;;;;;;7354022;32;20514;-55
2023/12/02 13:03:49;;;;;;;19.65;11.57;;;0.50;99.90;;;;;;7352618;32;20182;-53
2023/12/02 13:08:08;;;;;;;21.42;10.50;;;0.50;99.90;;;;;;7346752;32;20214;-57
2023/12/02 13:12:22;;;;;;;18.58;9.77;;;0.40;99.90;;;;;;7346501;32;20195;-56
2023/12/02 13:16:26;;;;;;;26.30;11.82;;;0.30;99.90;;;;;;7350200;32;20311;-56
2023/12/02 13:20:31;;;;;;;18.48;9.95;;;0.30;99.90;;;;;;7347823;32;20136;-57
2023/12/02 13:24:39;;;;;;;22.15;11.32;;;0.40;99.90;;;;;;7352204;32;20166;-56
2023/12/02 13:28:42;;;;;;;19.87;10.77;;;0.50;99.90;;;;;;7350065;32;20141;-56
2023/12/02 13:32:47;;;;;;;18.62;10.18;;;0.60;99.90;;;;;;7352402;32;20179;-54
2023/12/02 13:36:52;;;;;;;20.30;10.65;;;0.60;99.90;;;;;;7341137;32;20130;-55
2023/12/02 13:41:00;;;;;;;21.55;10.15;;;0.70;99.90;;;;;;7351080;32;20506;-56
2023/12/02 13:45:09;;;;;;;22.67;10.60;;;0.90;99.90;;;;;;7350014;32;20204;-56
2023/12/02 13:49:20;;;;;;;18.30;10.77;;;1.00;99.90;;;;;;7350961;32;20111;-55
2023/12/02 13:53:42;;;;;;;18.67;10.45;;;1.20;99.90;;;;;;7344694;32;20133;-57
2023/12/02 13:58:10;;;;;;;19.42;10.73;;;1.30;99.90;;;;;;7345388;32;20630;-56
2023/12/02 14:02:11;;;;;;;;;;;1.20;99.90;;;;;;7351452;32;20125;-56
2023/12/02 14:06:23;;;;;;;19.62;10.73;;;1.00;99.90;;;;;;7350233;32;21858;-57
2023/12/02 14:10:25;;;;;;;16.02;9.90;;;1.00;99.90;;;;;;7345018;32;20206;-56
2023/12/02 14:14:57;;;;;;;20.10;9.80;;;1.00;99.90;;;;;;7346433;32;20645;-56
2023/12/02 14:19:38;;;;;;;22.25;10.20;;;1.00;99.90;;;;;;7345381;32;20714;-55
2023/12/02 14:24:04;;;;;;;17.37;9.82;;;1.00;99.90;;;;;;7343433;32;20111;-56
2023/12/02 14:28:39;;;;;;;18.65;9.95;;;1.00;99.90;;;;;;7344027;32;20118;-56
2023/12/02 14:33:09;;;;;;;21.45;10.45;;;1.00;99.90;;;;;;7348328;32;20178;-56
2023/12/02 14:37:32;;;;;;;19.87;10.77;;;1.00;99.90;;;;;;7347594;32;20141;-56
2023/12/02 14:41:43;;;;;;;26.30;12.52;;;1.00;99.90;;;;;;7346489;32;20148;-55
2023/12/02 14:45:49;;;;;;;19.92;11.18;;;1.00;99.90;;;;;;7349185;32;20148;-56
2023/12/02 14:49:52;;;;;;;18.25;10.52;;;0.90;99.90;;;;;;7347037;32;20141;-55
2023/12/02 14:53:56;;;;;;;18.60;10.40;;;0.80;99.90;;;;;;7350016;32;20175;-56
2023/12/02 14:58:24;;;;;;;19.45;9.88;;;0.80;99.90;;;;;;7345995;32;20253;-56
2023/12/02 15:02:34;;;;;;;;;;;0.80;99.90;;;;;;7345641;32;20151;-56
2023/12/02 15:06:42;;;;;;;21.42;10.20;;;0.90;99.90;;;;;;7347571;32;20023;-56
2023/12/02 15:10:47;;;;;;;21.60;10.52;;;0.90;99.90;;;;;;7348149;32;20119;-55
2023/12/02 15:14:49;;;;;;;17.77;10.15;;;0.80;99.90;;;;;;7348147;32;20133;-56
2023/12/02 15:18:52;;;;;;;20.48;10.95;;;0.80;99.90;;;;;;7349056;32;20263;-55
2023/12/02 15:23:16;;;;;;;21.20;11.23;;;0.70;99.90;;;;;;7350912;32;20131;-58
2023/12/02 15:27:20;;;;;;;21.37;11.15;;;0.70;99.90;;;;;;7344803;32;20143;-56
2023/12/02 15:31:21;;;;;;;18.80;10.85;;;0.60;99.90;;;;;;7345911;32;20212;-55
2023/12/02 15:35:24;;;;;;;22.52;11.70;;;0.60;99.90;;;;;;7351993;32;20127;-56
2023/12/02 15:39:26;;;;;;;18.05;9.48;;;0.60;99.90;;;;;;7345391;32;20137;-55
2023/12/02 15:43:28;;;;;;;18.52;10.60;;;0.60;99.90;;;;;;7356946;32;20126;-54
2023/12/02 15:47:30;;;;;;;21.40;11.57;;;0.70;99.90;;;;;;7354533;32;20115;-56
2023/12/02 15:51:33;;;;;;;20.62;11.40;;;0.60;99.90;;;;;;7350717;32;20137;-55
2023/12/02 15:55:37;;;;;;;20.20;11.12;;;0.70;99.90;;;;;;7354614;32;20501;-54
2023/12/02 15:59:39;;;;;;;19.62;10.45;;;0.70;99.90;;;;;;7355281;32;20234;-55
2023/12/02 16:03:44;;;;;;;20.88;10.90;;;0.70;99.90;;;;;;7350364;32;20544;-57
2023/12/02 16:07:49;;;;;;;21.27;11.20;;;0.70;99.90;;;;;;7350530;32;20254;-55
2023/12/02 16:11:52;;;;;;;23.33;12.35;;;0.70;99.90;;;;;;7349653;32;20131;-56
2023/12/02 16:15:54;;;;;;;23.50;11.80;;;0.60;99.90;;;;;;7354014;32;20644;-56
2023/12/02 16:19:56;;;;;;;22.50;11.82;;;0.70;99.90;;;;;;7349893;32;20502;-57
2023/12/02 16:23:59;;;;;;;20.52;11.50;;;0.70;99.90;;;;;;7355744;32;20111;-56
2023/12/02 16:28:04;;;;;;;24.65;12.20;;;0.70;99.90;;;;;;7352801;32;20107;-55
2023/12/02 16:32:08;;;;;;;21.27;11.75;;;0.80;99.90;;;;;;7352389;32;20225;-56
2023/12/02 16:36:14;;;;;;;22.92;11.50;;;0.80;99.90;;;;;;7353814;32;20246;-56
2023/12/02 16:40:16;;;;;;;22.60;13.37;;;0.80;99.90;;;;;;7353427;32;20225;-56
2023/12/02 16:44:18;;;;;;;21.48;12.18;;;0.80;99.90;;;;;;7342167;32;20179;-56
2023/12/02 16:48:20;;;;;;;19.73;12.13;;;0.80;99.90;;;;;;7354231;32;20259;-56
2023/12/02 16:52:22;;;;;;;25.37;13.50;;;1.00;99.90;;;;;;7352235;32;20149;-56
2023/12/02 16:56:32;;;;;;;26.75;14.18;;;0.90;99.90;;;;;;7349224;32;20201;-57
2023/12/02 17:00:36;;;;;;;27.60;13.60;;;0.90;99.90;;;;;;7348481;32;20111;-56
2023/12/02 17:04:37;;;;;;;26.12;13.62;;;0.90;99.90;;;;;;7354206;32;20202;-56
2023/12/02 17:08:42;;;;;;;23.30;12.50;;;0.90;99.90;;;;;;7353285;32;20211;-56
2023/12/02 17:12:47;;;;;;;23.20;13.60;;;0.90;99.90;;;;;;7349107;32;20164;-55
2023/12/02 17:16:53;;;;;;;25.15;12.52;;;0.90;99.90;;;;;;7349113;32;20174;-56
2023/12/02 17:20:55;;;;;;;23.77;12.63;;;0.80;99.90;;;;;;7348320;32;20167;-56
2023/12/02 17:24:56;;;;;;;24.63;12.77;;;0.80;99.90;;;;;;7350106;32;20580;-56
2023/12/02 17:28:58;;;;;;;21.70;12.50;;;0.90;99.90;;;;;;7353868;32;20171;-56
2023/12/02 17:33:00;;;;;;;24.42;12.35;;;0.80;99.90;;;;;;7347317;32;20604;-57
2023/12/02 17:37:02;;;;;;;27.45;14.13;;;0.80;99.90;;;;;;7351804;32;20141;-56
2023/12/02 17:41:04;;;;;;;22.40;11.98;;;0.80;99.90;;;;;;7344736;32;20126;-56
2023/12/02 17:45:06;;;;;;;21.77;11.45;;;0.90;99.90;;;;;;7350731;32;20131;-57
2023/12/02 17:49:14;;;;;;;24.70;13.05;;;0.90;99.90;;;;;;7347718;32;20125;-56
2023/12/02 17:53:16;;;;;;;25.62;14.07;;;0.90;99.90;;;;;;7346229;32;20103;-57
2023/12/02 17:57:22;;;;;;;24.77;13.80;;;0.80;99.90;;;;;;7346591;32;20218;-56
2023/12/02 18:01:24;;;;;;;23.73;12.93;;;0.90;99.90;;;;;;7348343;32;20111;-55
2023/12/02 18:05:26;;;;;;;23.25;13.02;;;0.90;99.90;;;;;;7350837;32;20640;-56
2023/12/02 18:09:28;;;;;;;28.77;13.40;;;0.90;99.90;;;;;;7348764;32;20900;-56
2023/12/02 18:13:30;;;;;;;23.08;13.05;;;0.90;99.90;;;;;;7350331;32;20130;-55
2023/12/02 18:17:32;;;;;;;26.23;13.85;;;0.80;99.90;;;;;;7350936;32;20257;-56
2023/12/02 18:21:34;;;;;;;24.58;14.13;;;0.80;99.90;;;;;;7348201;32;20215;-56
2023/12/02 18:25:36;;;;;;;26.10;13.15;;;0.80;99.90;;;;;;7349537;32;20159;-57
2023/12/02 18:29:38;;;;;;;28.55;13.70;;;0.80;99.90;;;;;;7351560;32;20557;-56
2023/12/02 18:33:40;;;;;;;28.83;14.18;;;0.80;99.90;;;;;;7352547;32;20454;-56
2023/12/02 18:37:42;;;;;;;31.70;13.90;;;0.80;99.90;;;;;;7346960;32;20127;-56
2023/12/02 18:41:45;;;;;;;28.62;14.40;;;0.70;99.90;;;;;;7351065;32;20179;-56
2023/12/02 18:45:47;;;;;;;31.10;15.10;;;0.70;99.90;;;;;;7348128;32;20577;-56
2023/12/02 18:49:50;;;;;;;32.58;15.00;;;0.70;99.90;;;;;;7351903;32;20206;-56
2023/12/02 18:53:51;;;;;;;27.65;15.02;;;0.70;99.90;;;;;;7352550;32;20128;-57
2023/12/02 18:57:53;;;;;;;31.30;15.10;;;0.60;99.90;;;;;;7344747;32;20274;-58
2023/12/02 19:01:55;;;;;;;32.40;15.80;;;0.70;99.90;;;;;;7344698;32;20198;-56
2023/12/02 19:05:56;;;;;;;32.63;16.23;;;0.70;99.90;;;;;;7349621;32;20111;-56
2023/12/02 19:09:58;;;;;;;31.40;16.40;;;0.80;99.90;;;;;;7351402;32;20229;-57
2023/12/02 19:14:00;;;;;;;28.38;15.13;;;0.80;99.90;;;;;;7348949;32;20111;-56
2023/12/02 19:18:01;;;;;;;33.83;16.15;;;0.80;99.90;;;;;;7352272;32;20111;-57
2023/12/02 19:22:05;;;;;;;30.25;16.25;;;0.80;99.90;;;;;;7353879;32;20249;-56
2023/12/02 19:26:06;;;;;;;26.95;13.90;;;0.80;99.90;;;;;;7350956;32;20172;-57
2023/12/02 19:30:08;;;;;;;28.62;15.38;;;0.70;99.90;;;;;;7353683;32;20326;-58
2023/12/02 19:34:10;;;;;;;27.23;15.10;;;0.70;99.90;;;;;;7354090;32;20208;-57
2023/12/02 19:38:13;;;;;;;29.70;15.40;;;0.70;99.90;;;;;;7354901;32;20298;-57
2023/12/02 19:42:14;;;;;;;33.58;15.80;;;0.70;99.90;;;;;;7354678;32;20123;-58
2023/12/02 19:46:16;;;;;;;30.27;16.20;;;0.60;99.90;;;;;;7352981;32;20572;-57
2023/12/02 19:50:19;;;;;;;31.62;16.52;;;0.70;99.90;;;;;;7352384;32;20206;-58
2023/12/02 19:54:21;;;;;;;31.92;15.38;;;0.50;99.90;;;;;;7353829;32;20151;-56
2023/12/02 19:58:22;;;;;;;31.87;15.73;;;0.70;99.90;;;;;;7352923;32;20250;-58
2023/12/02 20:02:24;;;;;;;33.78;16.62;;;0.70;99.90;;;;;;7353674;32;20162;-57
2023/12/02 20:06:26;;;;;;;30.17;15.57;;;0.80;99.90;;;;;;7345743;32;20198;-57
2023/12/02 20:10:28;;;;;;;31.40;15.40;;;0.80;99.90;;;;;;7350599;32;20245;-58
2023/12/02 20:14:29;;;;;;;29.20;15.45;;;0.80;99.90;;;;;;7348426;32;20134;-56
2023/12/02 20:18:31;;;;;;;30.80;16.37;;;0.80;99.90;;;;;;7345554;32;20226;-56
2023/12/02 20:22:33;;;;;;;29.90;15.90;;;0.80;99.90;;;;;;7347612;32;20522;-57
2023/12/02 20:26:34;;;;;;;31.92;16.02;;;0.80;99.90;;;;;;7348113;32;20119;-57
2023/12/02 20:30:36;;;;;;;32.33;15.98;;;0.80;99.90;;;;;;7352208;32;20115;-57
2023/12/02 20:34:40;;;;;;;32.55;16.23;;;0.80;99.90;;;;;;7352306;32;20533;-57
2023/12/02 20:38:42;;;;;;;33.88;16.87;;;0.80;99.90;;;;;;7352659;32;20103;-56
2023/12/02 20:42:43;;;;;;;34.75;17.45;;;0.70;99.90;;;;;;7349350;32;20259;-55
2023/12/02 20:46:45;;;;;;;34.63;16.48;;;0.70;99.90;;;;;;7347611;32;20099;-58
2023/12/02 20:50:47;;;;;;;29.67;15.25;;;0.80;99.90;;;;;;7350389;32;20130;-57
2023/12/02 20:54:49;;;;;;;33.88;16.17;;;0.70;99.90;;;;;;7350441;32;20320;-58
2023/12/02 20:58:50;;;;;;;34.30;15.98;;;0.80;99.90;;;;;;7352690;32;20143;-56
2023/12/02 21:02:52;;;;;;;34.72;15.95;;;0.80;99.90;;;;;;7352104;32;20175;-55